createdAt,value
2023-04-02T00:00:11.960Z,14.07
2023-04-02T00:03:03.804Z,12.77
2023-04-02T00:05:51.117Z,14.60
2023-04-02T00:08:23.450Z,13.90
2023-04-02T00:10:55.770Z,13.47
2023-04-02T00:13:43.538Z,13.80
2023-04-02T00:16:14.588Z,14.52
2023-04-02T00:18:46.540Z,14.02
2023-04-02T00:21:29.893Z,14.70
2023-04-02T00:24:00.430Z,14.43
2023-04-02T00:26:32.010Z,12.93
2023-04-02T00:29:00.973Z,13.85
2023-04-02T00:31:28.060Z,14.05
2023-04-02T00:33:55.932Z,12.63
2023-04-02T00:36:26.634Z,13.87
2023-04-02T00:38:55.299Z,13.88
2023-04-02T00:41:27.184Z,12.98
2023-04-02T00:43:54.670Z,12.57
2023-04-02T00:46:27.628Z,13.18
2023-04-02T00:49:10.818Z,15.37
2023-04-02T00:51:44.460Z,13.45
2023-04-02T00:54:15.933Z,13.90
2023-04-02T00:56:45.209Z,14.27
2023-04-02T00:59:33.681Z,14.90
2023-04-02T01:02:17.326Z,14.40
2023-04-02T01:04:54.136Z,15.25
2023-04-02T01:07:35.832Z,15.43
2023-04-02T01:10:29.987Z,14.82
2023-04-02T01:13:13.670Z,14.60
2023-04-02T01:15:52.400Z,14.57
2023-04-02T01:18:26.854Z,14.38
2023-04-02T01:21:08.697Z,15.30
2023-04-02T01:23:37.874Z,14.10
2023-04-02T01:26:44.534Z,13.90
2023-04-02T01:29:14.106Z,13.67
2023-04-02T01:31:41.801Z,12.73
2023-04-02T01:34:11.847Z,13.02
2023-04-02T01:37:02.709Z,12.35
2023-04-02T01:39:52.240Z,12.25
2023-04-02T01:42:41.654Z,11.50
2023-04-02T01:45:12.418Z,12.38
2023-04-02T01:47:39.660Z,19.83
2023-04-02T01:50:32.007Z,13.05
2023-04-02T01:53:02.242Z,12.65
2023-04-02T01:55:34.155Z,13.67
2023-04-02T01:58:02.134Z,15.82
2023-04-02T02:00:30.347Z,13.43
2023-04-02T02:02:56.996Z,11.65
2023-04-02T02:05:23.929Z,13.52
2023-04-02T02:07:52.143Z,13.53
2023-04-02T02:10:26.449Z,13.82
2023-04-02T02:12:52.934Z,14.65
2023-04-02T02:15:23.090Z,12.77
2023-04-02T02:17:50.777Z,13.75
2023-04-02T02:20:17.864Z,13.00
2023-04-02T02:22:47.474Z,13.15
2023-04-02T02:25:21.244Z,11.68
2023-04-02T02:27:58.346Z,12.57
2023-04-02T02:30:39.212Z,13.13
2023-04-02T02:33:18.005Z,15.00
2023-04-02T02:35:52.757Z,14.00
2023-04-02T02:38:28.391Z,14.73
2023-04-02T02:41:01.347Z,13.63
2023-04-02T02:43:28.335Z,13.43
2023-04-02T02:45:56.777Z,12.27
2023-04-02T02:48:29.364Z,12.27
2023-04-02T02:50:56.842Z,12.95
2023-04-02T02:53:24.640Z,12.75
2023-04-02T02:55:58.382Z,12.63
2023-04-02T02:58:28.106Z,12.20
2023-04-02T03:00:54.796Z,12.27
2023-04-02T03:03:24.839Z,12.80
2023-04-02T03:05:58.117Z,12.52
2023-04-02T03:08:32.487Z,12.90
2023-04-02T03:11:17.633Z,12.57
2023-04-02T03:13:48.774Z,13.02
2023-04-02T03:16:39.183Z,12.18
2023-04-02T03:19:28.220Z,12.98
2023-04-02T03:21:54.645Z,12.93
2023-04-02T03:24:33.117Z,13.23
2023-04-02T03:27:08.906Z,13.65
2023-04-02T03:29:41.459Z,12.27
2023-04-02T03:32:20.423Z,12.98
2023-04-02T03:34:52.215Z,14.02
2023-04-02T03:37:23.847Z,17.87
2023-04-02T03:40:11.321Z,13.55
2023-04-02T03:43:10.759Z,12.02
2023-04-02T03:45:41.358Z,13.77
2023-04-02T03:48:16.145Z,13.07
2023-04-02T03:50:51.276Z,13.60
2023-04-02T03:53:17.997Z,12.95
2023-04-02T03:55:44.561Z,13.35
2023-04-02T03:58:17.930Z,13.43
2023-04-02T04:01:28.589Z,11.95
2023-04-02T04:04:02.995Z,13.33
2023-04-02T04:06:32.150Z,13.57
2023-04-02T04:09:40.774Z,14.65
2023-04-02T04:12:35.257Z,13.65
2023-04-02T04:15:33.747Z,15.98
2023-04-02T04:18:10.490Z,17.63
2023-04-02T04:20:57.061Z,14.32
2023-04-02T04:23:36.698Z,14.82
2023-04-02T04:26:19.526Z,15.45
2023-04-02T04:29:31.642Z,14.23
2023-04-02T04:32:16.671Z,14.83
2023-04-02T04:34:51.429Z,14.23
2023-04-02T04:37:25.245Z,14.45
2023-04-02T04:40:03.093Z,13.82
2023-04-02T04:42:34.865Z,13.75
2023-04-02T04:45:13.639Z,14.27
2023-04-02T04:47:47.796Z,13.95
2023-04-02T04:50:32.973Z,14.32
2023-04-02T04:53:06.455Z,14.35
2023-04-02T04:55:42.859Z,14.73
2023-04-02T04:58:22.018Z,13.53
2023-04-02T05:00:51.427Z,12.77
2023-04-02T05:03:46.860Z,13.73
2023-04-02T05:06:45.633Z,12.43
2023-04-02T05:09:19.947Z,11.95
2023-04-02T05:11:53.645Z,11.87
2023-04-02T05:14:33.650Z,13.13
2023-04-02T05:17:12.997Z,10.95
2023-04-02T05:19:48.484Z,10.57
2023-04-02T05:22:28.125Z,10.65
2023-04-02T05:25:02.615Z,10.00
2023-04-02T05:27:40.632Z,9.55
2023-04-02T05:30:25.438Z,10.77
2023-04-02T05:33:00.500Z,9.15
2023-04-02T05:35:32.830Z,10.07
2023-04-02T05:38:01.855Z,8.63
2023-04-02T05:40:50.840Z,9.55
2023-04-02T05:43:19.149Z,11.10
2023-04-02T05:45:53.270Z,8.60
2023-04-02T05:48:39.715Z,9.27
2023-04-02T05:51:11.964Z,8.33
2023-04-02T05:53:45.347Z,9.65
2023-04-02T05:56:32.050Z,8.95
2023-04-02T05:59:25.627Z,10.98
2023-04-02T06:02:16.941Z,7.82
2023-04-02T06:04:52.328Z,9.37
2023-04-02T06:07:23.405Z,9.63
2023-04-02T06:10:05.736Z,8.65
2023-04-02T06:12:47.019Z,7.30
2023-04-02T06:15:18.979Z,8.15
2023-04-02T06:17:52.917Z,7.20
2023-04-02T06:20:20.918Z,7.07
2023-04-02T06:22:52.948Z,6.60
2023-04-02T06:25:30.601Z,7.70
2023-04-02T06:27:59.760Z,7.50
2023-04-02T06:30:32.675Z,7.20
2023-04-02T06:32:59.262Z,7.18
2023-04-02T06:35:25.790Z,7.47
2023-04-02T06:37:54.807Z,7.47
2023-04-02T06:40:39.519Z,6.90
2023-04-02T06:43:26.289Z,7.00
2023-04-02T06:45:57.353Z,7.22
2023-04-02T06:48:25.379Z,7.47
2023-04-02T06:51:07.103Z,6.78
2023-04-02T06:53:37.535Z,8.93
2023-04-02T06:56:36.306Z,7.47
2023-04-02T06:59:04.703Z,8.25
2023-04-02T07:01:36.237Z,8.18
2023-04-02T07:04:03.007Z,7.65
2023-04-02T07:06:29.543Z,7.13
2023-04-02T07:08:56.236Z,6.70
2023-04-02T07:11:23.123Z,8.43
2023-04-02T07:13:50.104Z,7.90
2023-04-02T07:16:22.809Z,7.35
2023-04-02T07:18:49.695Z,8.05
2023-04-02T07:21:16.180Z,7.93
2023-04-02T07:23:42.861Z,7.53
2023-04-02T07:26:14.182Z,7.53
2023-04-02T07:28:40.833Z,6.95
2023-04-02T07:31:24.314Z,7.00
2023-04-02T07:33:52.632Z,7.47
2023-04-02T07:36:23.976Z,7.13
2023-04-02T07:38:50.749Z,7.28
2023-04-02T07:41:19.531Z,7.32
2023-04-02T07:43:46.090Z,6.88
2023-04-02T07:46:15.177Z,7.70
2023-04-02T07:48:41.764Z,6.97
2023-04-02T07:51:22.963Z,8.00
2023-04-02T07:53:51.050Z,7.78
2023-04-02T07:56:21.070Z,7.40
2023-04-02T07:58:47.791Z,7.20
2023-04-02T08:01:26.264Z,8.10
2023-04-02T08:03:54.578Z,7.18
2023-04-02T08:06:21.616Z,8.65
2023-04-02T08:08:48.342Z,8.90
2023-04-02T08:11:15.122Z,7.20
2023-04-02T08:13:43.853Z,7.90
2023-04-02T08:16:10.664Z,7.72
2023-04-02T08:18:37.232Z,8.00
2023-04-02T08:21:07.916Z,9.73
2023-04-02T08:23:35.779Z,7.17
2023-04-02T08:26:02.589Z,7.95
2023-04-02T08:28:29.082Z,7.85
2023-04-02T08:30:55.983Z,7.97
2023-04-02T08:33:22.743Z,7.10
2023-04-02T08:35:50.544Z,7.47
2023-04-02T08:38:19.102Z,7.22
2023-04-02T08:40:49.822Z,8.13
2023-04-02T08:43:23.590Z,7.20
2023-04-02T08:46:19.154Z,8.00
2023-04-02T08:48:55.284Z,7.47
2023-04-02T08:51:26.106Z,7.05
2023-04-02T08:54:21.754Z,7.22
2023-04-02T08:57:04.180Z,7.88
2023-04-02T08:59:33.300Z,7.00
2023-04-02T09:02:02.682Z,6.97
2023-04-02T09:04:29.553Z,7.82
2023-04-02T09:06:57.259Z,7.65
2023-04-02T09:09:25.071Z,7.80
2023-04-02T09:12:00.788Z,6.15
2023-04-02T09:14:43.523Z,7.27
2023-04-02T09:17:36.959Z,6.93
2023-04-02T09:20:26.697Z,6.63
2023-04-02T09:22:54.726Z,6.97
2023-04-02T09:25:26.879Z,5.78
2023-04-02T09:27:55.654Z,5.73
2023-04-02T09:30:32.783Z,5.95
2023-04-02T09:33:02.424Z,6.07
2023-04-02T09:35:32.517Z,5.20
2023-04-02T09:38:07.976Z,5.00
2023-04-02T09:40:54.766Z,5.97
2023-04-02T09:43:24.060Z,5.45
2023-04-02T09:46:04.010Z,4.93
2023-04-02T09:48:53.212Z,5.13
2023-04-02T09:51:22.061Z,5.57
2023-04-02T09:54:03.580Z,4.87
2023-04-02T09:56:35.467Z,4.80
2023-04-02T09:59:14.080Z,26.38
2023-04-02T10:01:57.094Z,6.75
2023-04-02T10:04:44.653Z,5.28
2023-04-02T10:07:34.681Z,5.63
2023-04-02T10:10:12.839Z,5.97
2023-04-02T10:12:42.411Z,6.50
2023-04-02T10:15:18.459Z,7.82
2023-04-02T10:17:50.035Z,9.60
2023-04-02T10:20:23.276Z,10.97
2023-04-02T10:22:50.176Z,12.93
2023-04-02T10:25:20.266Z,7.43
2023-04-02T10:28:22.145Z,4.80
2023-04-02T10:31:08.522Z,14.68
2023-04-02T10:33:39.517Z,4.10
2023-04-02T10:36:43.408Z,9.75
2023-04-02T10:39:20.017Z,7.72
2023-04-02T10:41:52.993Z,9.50
2023-04-02T10:44:41.739Z,28.20
2023-04-02T10:47:32.230Z,12.03
2023-04-02T10:50:19.804Z,11.75
2023-04-02T10:52:56.531Z,6.75
2023-04-02T10:55:32.081Z,5.57
2023-04-02T10:58:07.239Z,5.45
2023-04-02T11:00:41.480Z,6.70
2023-04-02T11:03:15.090Z,5.28
2023-04-02T11:05:49.558Z,5.88
2023-04-02T11:08:21.482Z,5.10
2023-04-02T11:10:57.943Z,8.02
2023-04-02T11:13:36.537Z,4.53
2023-04-02T11:16:03.818Z,4.00
2023-04-02T11:18:35.897Z,7.85
2023-04-02T11:21:05.445Z,9.00
2023-04-02T11:23:35.391Z,6.43
2023-04-02T11:26:47.535Z,5.03
2023-04-02T11:29:16.309Z,5.68
2023-04-02T11:31:44.681Z,5.38
2023-04-02T11:34:14.217Z,4.80
2023-04-02T11:36:53.001Z,4.25
2023-04-02T11:39:55.257Z,5.47
2023-04-02T11:42:24.948Z,4.72
2023-04-02T11:44:52.822Z,5.57
2023-04-02T11:47:24.947Z,5.22
2023-04-02T11:49:54.637Z,3.95
2023-04-02T11:52:52.064Z,4.67
2023-04-02T11:55:24.472Z,5.47
2023-04-02T11:58:02.111Z,4.35
2023-04-02T12:00:39.981Z,5.38
2023-04-02T12:03:29.756Z,4.22
2023-04-02T12:06:10.672Z,3.60
2023-04-02T12:09:05.536Z,3.95
2023-04-02T12:11:38.674Z,5.40
2023-04-02T12:14:33.247Z,4.05
2023-04-02T12:17:00.206Z,6.60
2023-04-02T12:19:27.698Z,4.83
2023-04-02T12:21:54.395Z,5.32
2023-04-02T12:24:24.063Z,4.68
2023-04-02T12:27:22.490Z,5.10
2023-04-02T12:29:51.069Z,3.75
2023-04-02T12:32:29.952Z,4.37
2023-04-02T12:35:04.625Z,4.38
2023-04-02T12:37:31.481Z,3.45
2023-04-02T12:40:16.806Z,6.97
2023-04-02T12:42:43.338Z,3.35
2023-04-02T12:45:33.935Z,3.30
2023-04-02T12:48:04.048Z,5.35
2023-04-02T12:50:31.163Z,4.78
2023-04-02T12:52:59.020Z,5.18
2023-04-02T12:55:27.110Z,3.70
2023-04-02T12:57:58.096Z,4.83
2023-04-02T13:00:27.412Z,2.92
2023-04-02T13:03:08.692Z,3.83
2023-04-02T13:05:44.553Z,3.17
2023-04-02T13:08:27.739Z,3.38
2023-04-02T13:11:00.655Z,3.67
2023-04-02T13:13:35.592Z,3.92
2023-04-02T13:16:10.478Z,3.88
2023-04-02T13:18:38.333Z,3.28
2023-04-02T13:21:17.149Z,2.85
2023-04-02T13:23:44.633Z,3.30
2023-04-02T13:26:11.092Z,2.70
2023-04-02T13:28:38.204Z,3.35
2023-04-02T13:31:04.782Z,3.25
2023-04-02T13:33:31.738Z,5.07
2023-04-02T13:35:58.281Z,2.67
2023-04-02T13:38:24.810Z,3.33
2023-04-02T13:40:51.754Z,2.67
2023-04-02T13:43:20.606Z,3.13
2023-04-02T13:45:54.295Z,5.90
2023-04-02T13:48:24.585Z,3.07
2023-04-02T13:50:52.730Z,2.33
2023-04-02T13:53:27.588Z,3.28
2023-04-02T13:55:54.145Z,3.78
2023-04-02T13:58:20.947Z,2.75
2023-04-02T14:00:47.927Z,3.63
2023-04-02T14:03:22.037Z,3.28
2023-04-02T14:06:08.445Z,3.17
2023-04-02T14:09:04.225Z,2.70
2023-04-02T14:11:46.863Z,1.40
2023-04-02T14:14:38.150Z,2.80
2023-04-02T14:17:23.363Z,2.42
2023-04-02T14:20:03.101Z,7.22
2023-04-02T14:22:44.892Z,3.70
2023-04-02T14:25:17.372Z,6.20
2023-04-02T14:28:22.259Z,2.37
2023-04-02T14:31:03.764Z,2.75
2023-04-02T14:33:36.073Z,2.30
2023-04-02T14:36:35.065Z,2.55
2023-04-02T14:39:30.730Z,2.05
2023-04-02T14:42:06.679Z,2.63
2023-04-02T14:44:40.374Z,2.30
2023-04-02T14:47:23.263Z,2.20
2023-04-02T14:49:54.943Z,1.85
2023-04-02T14:52:23.924Z,3.03
2023-04-02T14:55:03.289Z,24.47
2023-04-02T14:57:33.303Z,2.33
2023-04-02T15:00:33.984Z,3.70
2023-04-02T15:03:17.028Z,6.32
2023-04-02T15:06:06.074Z,3.83
2023-04-02T15:08:42.996Z,4.10
2023-04-02T15:11:33.875Z,4.78
2023-04-02T15:14:06.841Z,3.72
2023-04-02T15:16:36.332Z,2.13
2023-04-02T15:19:10.205Z,2.17
2023-04-02T15:22:27.736Z,2.13
2023-04-02T15:25:13.946Z,2.38
2023-04-02T15:27:50.014Z,2.50
2023-04-02T15:30:24.913Z,3.03
2023-04-02T15:32:54.383Z,3.25
2023-04-02T15:35:31.476Z,4.43
2023-04-02T15:38:09.880Z,4.90
2023-04-02T15:40:54.768Z,4.65
2023-04-02T15:43:44.797Z,2.58
2023-04-02T15:46:20.134Z,4.63
2023-04-02T15:49:05.058Z,2.93
2023-04-02T15:52:01.355Z,2.50
2023-04-02T15:54:37.112Z,2.85
2023-04-02T15:57:17.642Z,2.08
2023-04-02T16:00:09.112Z,2.47
2023-04-02T16:02:38.598Z,3.27
2023-04-02T16:05:23.237Z,2.50
2023-04-02T16:07:58.643Z,4.13
2023-04-02T16:10:41.298Z,4.38
2023-04-02T16:13:26.529Z,1.73
2023-04-02T16:16:12.348Z,2.03
2023-04-02T16:18:47.326Z,2.90
2023-04-02T16:21:23.076Z,2.15
2023-04-02T16:23:50.509Z,4.40
2023-04-02T16:26:34.501Z,3.10
2023-04-02T16:29:47.052Z,3.60
2023-04-02T16:32:31.718Z,3.22
2023-04-02T16:37:58.092Z,1.60
2023-04-02T16:40:27.251Z,5.35
2023-04-02T16:43:02.952Z,3.63
2023-04-02T16:45:35.241Z,4.93
2023-04-02T16:48:19.872Z,3.25
2023-04-02T16:50:55.584Z,2.30
2023-04-02T16:53:33.941Z,3.67
2023-04-02T16:56:19.020Z,2.27
2023-04-02T16:58:54.730Z,3.17
2023-04-02T17:01:43.316Z,2.88
2023-04-02T17:04:25.938Z,2.78
2023-04-02T17:07:16.869Z,3.38
2023-04-02T17:09:52.088Z,5.97
2023-04-02T17:12:29.993Z,4.55
2023-04-02T17:17:57.122Z,5.53
2023-04-02T17:20:25.956Z,3.10
2023-04-02T17:22:54.470Z,5.27
2023-04-02T17:25:31.668Z,3.97
2023-04-02T17:27:58.136Z,3.45
2023-04-02T17:30:43.202Z,2.85
2023-04-02T17:33:18.206Z,8.35
2023-04-02T17:36:04.499Z,3.33
2023-04-02T17:38:49.980Z,5.70
2023-04-02T17:41:30.919Z,4.40
2023-04-02T17:44:11.480Z,7.25
2023-04-02T17:47:01.895Z,5.03
2023-04-02T17:50:24.572Z,4.37
2023-04-02T17:53:00.490Z,4.80
2023-04-02T17:55:34.163Z,3.40
2023-04-02T17:58:18.888Z,4.18
2023-04-02T18:01:04.761Z,5.95
2023-04-02T18:03:52.117Z,4.07
2023-04-02T18:06:28.154Z,6.90
2023-04-02T18:09:37.993Z,7.57
2023-04-02T18:12:19.420Z,7.00
2023-04-02T18:15:11.727Z,6.05
2023-04-02T18:17:52.498Z,14.33
2023-04-02T18:20:56.718Z,8.50
2023-04-02T18:23:50.683Z,6.22
2023-04-02T18:26:35.429Z,5.50
2023-04-02T18:29:35.650Z,8.70
2023-04-02T18:32:20.654Z,10.47
2023-04-02T18:34:56.937Z,8.65
2023-04-02T18:37:36.770Z,7.97
2023-04-02T18:40:22.121Z,7.18
2023-04-02T18:42:48.965Z,6.82
2023-04-02T18:45:22.239Z,6.40
2023-04-02T18:47:57.515Z,8.07
2023-04-02T18:50:36.372Z,6.75
2023-04-02T18:53:12.605Z,7.65
2023-04-02T18:55:55.551Z,6.65
2023-04-02T18:58:32.627Z,6.40
2023-04-02T19:01:00.629Z,6.18
2023-04-02T19:03:32.703Z,6.03
2023-04-02T19:06:07.628Z,7.55
2023-04-02T19:08:51.056Z,7.57
2023-04-02T19:11:20.358Z,7.23
2023-04-02T19:13:48.944Z,7.57
2023-04-02T19:16:37.172Z,7.00
2023-04-02T19:19:22.464Z,7.30
2023-04-02T19:22:12.413Z,7.65
2023-04-02T19:25:00.275Z,8.07
2023-04-02T19:27:55.036Z,10.07
2023-04-02T19:30:24.657Z,9.82
2023-04-02T19:33:04.521Z,9.02
2023-04-02T19:35:41.532Z,8.93
2023-04-02T19:38:33.366Z,8.77
2023-04-02T19:41:32.056Z,13.77
2023-04-02T19:43:58.746Z,12.35
2023-04-02T19:46:26.494Z,11.65
2023-04-02T19:49:06.354Z,11.25
2023-04-02T19:51:33.729Z,10.40
2023-04-02T19:54:00.900Z,8.73
2023-04-02T19:56:28.165Z,8.10
2023-04-02T19:58:56.634Z,9.00
2023-04-02T20:01:23.391Z,9.25
2023-04-02T20:03:49.906Z,11.47
2023-04-02T20:06:16.420Z,12.32
2023-04-02T20:08:43.007Z,9.02
2023-04-02T20:11:09.732Z,7.32
2023-04-02T20:13:36.280Z,6.78
2023-04-02T20:16:04.753Z,8.90
2023-04-02T20:18:32.017Z,7.70
2023-04-02T20:20:58.520Z,8.02
2023-04-02T20:23:25.348Z,8.30
2023-04-02T20:25:56.093Z,7.38
2023-04-02T20:28:24.039Z,8.80
2023-04-02T20:30:51.217Z,8.30
2023-04-02T20:33:19.343Z,6.97
2023-04-02T20:35:45.923Z,7.15
2023-04-02T20:38:12.526Z,7.05
2023-04-02T20:40:41.418Z,6.23
2023-04-02T20:43:11.074Z,5.65
2023-04-02T20:45:37.993Z,6.68
2023-04-02T20:48:05.122Z,7.30
2023-04-02T20:50:31.683Z,7.07
2023-04-02T20:52:59.991Z,6.77
2023-04-02T20:55:26.473Z,5.60
2023-04-02T20:57:53.602Z,5.82
2023-04-02T21:00:20.935Z,6.90
2023-04-02T21:02:47.415Z,5.65
2023-04-02T21:05:14.031Z,7.27
2023-04-02T21:07:40.531Z,6.70
2023-04-02T21:10:07.448Z,6.47
2023-04-02T21:12:33.904Z,5.72
2023-04-02T21:15:02.800Z,6.85
2023-04-02T21:17:29.668Z,6.00
2023-04-02T21:19:56.137Z,9.35
2023-04-02T21:22:22.802Z,6.30
2023-04-02T21:24:49.376Z,6.55
2023-04-02T21:27:16.749Z,6.10
2023-04-02T21:29:43.256Z,5.33
2023-04-02T21:32:20.814Z,5.80
2023-04-02T21:34:48.064Z,5.03
2023-04-02T21:37:14.623Z,5.72
2023-04-02T21:39:41.434Z,5.50
2023-04-02T21:42:07.959Z,5.33
2023-04-02T21:44:34.416Z,5.05
2023-04-02T21:47:01.023Z,5.63
2023-04-02T21:49:27.753Z,5.47
2023-04-02T21:51:54.300Z,5.60
2023-04-02T21:54:21.170Z,4.57
2023-04-02T21:56:47.944Z,5.05
2023-04-02T21:59:16.516Z,5.40
2023-04-02T22:01:48.686Z,6.88
2023-04-02T22:04:23.429Z,5.40
2023-04-02T22:06:50.930Z,5.33
2023-04-02T22:09:23.400Z,5.30
2023-04-02T22:11:54.140Z,4.95
2023-04-02T22:14:21.346Z,5.60
2023-04-02T22:16:47.831Z,5.20
2023-04-02T22:19:15.908Z,4.70
2023-04-02T22:21:42.888Z,5.65
2023-04-02T22:24:13.805Z,5.70
2023-04-02T22:26:41.274Z,5.75
2023-04-02T22:29:08.394Z,5.45
2023-04-02T22:31:35.243Z,5.37
2023-04-02T22:34:03.616Z,5.40
2023-04-02T22:36:30.751Z,5.72
2023-04-02T22:38:58.936Z,6.00
2023-04-02T22:41:28.107Z,5.53
2023-04-02T22:43:56.856Z,7.17
2023-04-02T22:46:24.126Z,6.60
2023-04-02T22:48:50.804Z,6.35
2023-04-02T22:51:20.813Z,5.75
2023-04-02T22:53:48.741Z,5.70
2023-04-02T22:56:21.914Z,5.77
2023-04-02T22:58:49.153Z,5.30
2023-04-02T23:01:23.226Z,5.95
2023-04-02T23:03:49.901Z,5.47
2023-04-02T23:06:18.326Z,5.97
2023-04-02T23:08:46.080Z,6.33
2023-04-02T23:11:22.224Z,5.82
2023-04-02T23:13:50.828Z,7.38
2023-04-02T23:16:18.555Z,5.82
2023-04-02T23:18:48.112Z,6.65
2023-04-02T23:21:16.295Z,6.87
2023-04-02T23:23:43.937Z,5.93
2023-04-02T23:26:29.054Z,6.30
2023-04-02T23:28:55.619Z,5.18
2023-04-02T23:31:23.405Z,6.00
2023-04-02T23:33:51.783Z,6.47
2023-04-02T23:36:27.752Z,6.38
2023-04-02T23:38:55.995Z,7.47
2023-04-02T23:41:24.950Z,6.47
2023-04-02T23:43:51.750Z,6.72
2023-04-02T23:46:19.257Z,7.17
2023-04-02T23:48:46.677Z,6.70
2023-04-02T23:51:13.915Z,6.07
2023-04-02T23:53:40.498Z,6.05
2023-04-02T23:56:07.250Z,6.75
2023-04-02T23:58:33.740Z,6.23
